Time;durP1;ratioP1;P1;durP2;ratioP2;P2;SDS_P1;SDS_P2;PMS_P1;PMS_P2;Temp;Humidity;BMP_temperature;BMP_pressure;BME280_temperature;BME280_humidity;BME280_pressure;Samples;Min_cycle;Max_cycle;Signal;HPM_P1;HPM_P2
2022/07/03 00:00:18;;;;;;;;;;;21.70;71.10;;;;;;5031730;28;20375;-56
2022/07/03 00:03:03;;;;;;;;;;;21.60;71.30;;;;;;5031730;28;19916;-52
2022/07/03 00:05:47;;;;;;;;;;;21.50;71.70;;;;;;5033006;28;19931;-53
2022/07/03 00:08:31;;;;;;;;;;;21.50;71.70;;;;;;5035743;28;19959;-56
2022/07/03 00:11:15;;;;;;;;;;;21.50;72.00;;;;;;5036240;28;19920;-53
2022/07/03 00:13:59;;;;;;;;;;;21.40;72.40;;;;;;5035917;28;20355;-55
2022/07/03 00:16:44;;;;;;;;;;;21.30;72.70;;;;;;5035849;28;20454;-52
2022/07/03 00:19:28;;;;;;;;;;;21.30;72.80;;;;;;5036059;28;20022;-52
2022/07/03 00:22:13;;;;;;;;;;;21.30;73.00;;;;;;5036192;28;19932;-51
2022/07/03 00:25:01;;;;;;;;;;;21.30;72.90;;;;;;5036676;28;19916;-55
2022/07/03 00:27:45;;;;;;;;;;;21.30;73.30;;;;;;5035802;28;19912;-56
2022/07/03 00:30:29;;;;;;;;;;;21.20;73.40;;;;;;5036343;28;19919;-53
2022/07/03 00:33:14;;;;;;;;;;;21.20;73.60;;;;;;5036023;28;20427;-53
2022/07/03 00:35:59;;;;;;;;;;;21.20;73.50;;;;;;5035533;28;20272;-51
2022/07/03 00:38:44;;;;;;;;;;;21.20;73.60;;;;;;5034798;28;20288;-52
2022/07/03 00:41:30;;;;;;;;;;;21.20;73.40;;;;;;5035355;28;19912;-50
2022/07/03 00:44:15;;;;;;;;;;;21.20;73.70;;;;;;5035584;28;19925;-54
2022/07/03 00:47:02;;;;;;;;;;;21.20;73.60;;;;;;5035018;28;20399;-55
2022/07/03 00:49:47;;;;;;;;;;;21.20;73.70;;;;;;5037506;28;20034;-53
2022/07/03 00:52:32;;;;;;;;;;;21.30;73.40;;;;;;5035337;28;20047;-56
2022/07/03 00:55:17;;;;;;;;;;;21.20;73.60;;;;;;5034853;28;19967;-52
2022/07/03 00:58:02;;;;;;;;;;;21.10;74.00;;;;;;5036014;28;19916;-53
2022/07/03 01:00:47;;;;;;;;;;;21.00;74.30;;;;;;5035342;28;20316;-53
2022/07/03 01:03:32;;;;;;;;;;;21.00;74.50;;;;;;5035517;28;19919;-52
2022/07/03 01:06:16;;;;;;;;;;;20.90;74.60;;;;;;5034476;28;19916;-54
2022/07/03 01:09:03;;;;;;;;;;;20.90;74.80;;;;;;5034881;28;19920;-51
2022/07/03 01:11:57;;;;;;;;;;;20.90;75.10;;;;;;5034542;28;19920;-52
2022/07/03 01:15:03;;;;;;;;;;;20.90;75.20;;;;;;5034616;28;19920;-52
2022/07/03 01:17:59;;;;;;;;;;;20.90;75.10;;;;;;5034312;28;20319;-48
2022/07/03 01:20:47;;;;;;;;;;;20.80;75.40;;;;;;5035057;28;19912;-53
2022/07/03 01:23:40;;;;;;;;;;;20.70;75.50;;;;;;5035417;28;19963;-55
2022/07/03 01:26:27;;;;;;;;;;;20.60;76.00;;;;;;5035286;28;20468;-55
2022/07/03 01:29:13;;;;;;;;;;;20.60;76.10;;;;;;5014674;28;19998;-52
2022/07/03 01:31:58;;;;;;;;;;;20.60;75.90;;;;;;5016933;28;20006;-55
2022/07/03 01:34:43;;;;;;;;;;;20.40;76.40;;;;;;5034693;28;19920;-52
2022/07/03 01:37:29;;;;;;;;;;;20.40;76.40;;;;;;5033899;28;20391;-51
2022/07/03 01:40:14;;;;;;;;;;;20.30;76.70;;;;;;5055133;28;20395;-51
2022/07/03 01:42:59;;;;;;;;;;;20.40;76.50;;;;;;5051315;28;19927;-52
2022/07/03 01:45:45;;;;;;;;;;;20.40;76.50;;;;;;5034213;28;19919;-50
2022/07/03 01:48:30;;;;;;;;;;;20.40;76.70;;;;;;5034553;28;19920;-50
2022/07/03 01:51:14;;;;;;;;;;;20.40;77.30;;;;;;5034699;28;19919;-50
2022/07/03 01:53:59;;;;;;;;;;;20.40;76.70;;;;;;5033998;28;19920;-54
2022/07/03 01:56:44;;;;;;;;;;;20.50;76.80;;;;;;5014842;28;19912;-52
2022/07/03 01:59:28;;;;;;;;;;;20.60;76.60;;;;;;5032197;28;19966;-52
2022/07/03 02:02:13;;;;;;;;;;;20.60;76.60;;;;;;5036256;28;19988;-55
2022/07/03 02:05:00;;;;;;;;;;;20.60;76.60;;;;;;5040412;28;19954;-52
2022/07/03 02:07:44;;;;;;;;;;;20.60;76.60;;;;;;5040324;28;19935;-52
2022/07/03 02:10:29;;;;;;;;;;;20.70;76.70;;;;;;5039815;28;19928;-56
2022/07/03 02:13:22;;;;;;;;;;;20.70;76.50;;;;;;5036169;28;19920;-55
2022/07/03 02:16:07;;;;;;;;;;;20.80;76.20;;;;;;5033583;28;20288;-53
2022/07/03 02:18:55;;;;;;;;;;;20.90;76.20;;;;;;5034037;28;19920;-50
2022/07/03 02:21:42;;;;;;;;;;;20.90;76.10;;;;;;5034293;28;20021;-53
2022/07/03 02:24:27;;;;;;;;;;;20.90;76.20;;;;;;5014666;28;19916;-56
2022/07/03 02:27:16;;;;;;;;;;;20.90;76.40;;;;;;5016926;28;20416;-52
2022/07/03 02:30:04;;;;;;;;;;;20.90;76.10;;;;;;5033844;28;20391;-53
2022/07/03 02:32:49;;;;;;;;;;;20.90;76.10;;;;;;5034644;28;19939;-50
2022/07/03 02:35:33;;;;;;;;;;;20.80;76.10;;;;;;5033809;28;20411;-56
2022/07/03 02:38:19;;;;;;;;;;;20.80;76.30;;;;;;5034613;28;19920;-52
2022/07/03 02:41:13;;;;;;;;;;;20.70;76.30;;;;;;5034523;28;19994;-53
2022/07/03 02:44:07;;;;;;;;;;;20.70;76.30;;;;;;5032267;28;20456;-51
2022/07/03 02:46:52;;;;;;;;;;;20.70;76.20;;;;;;5032840;28;19912;-53
2022/07/03 02:49:43;;;;;;;;;;;20.60;76.40;;;;;;5033340;28;19919;-51
2022/07/03 02:52:37;;;;;;;;;;;20.60;76.50;;;;;;5033278;28;19912;-54
2022/07/03 02:55:21;;;;;;;;;;;20.60;76.50;;;;;;5023825;28;20126;-53
2022/07/03 02:58:06;;;;;;;;;;;20.60;76.40;;;;;;5034143;28;20356;-55
2022/07/03 03:00:57;;;;;;;;;;;20.60;76.60;;;;;;5033826;28;19912;-53
2022/07/03 03:03:45;;;;;;;;;;;20.60;76.70;;;;;;5047698;28;19916;-53
2022/07/03 03:06:31;;;;;;;;;;;20.50;76.70;;;;;;5033173;28;19951;-50
2022/07/03 03:09:19;;;;;;;;;;;20.30;77.10;;;;;;5033437;28;20479;-53
2022/07/03 03:12:04;;;;;;;;;;;20.20;77.60;;;;;;5034643;28;19912;-53
2022/07/03 03:14:54;;;;;;;;;;;20.00;78.30;;;;;;5033782;28;19924;-53
2022/07/03 03:17:49;;;;;;;;;;;20.00;78.50;;;;;;5036082;28;19959;-53
2022/07/03 03:20:34;;;;;;;;;;;20.20;78.30;;;;;;5053923;28;19958;-55
2022/07/03 03:23:24;;;;;;;;;;;20.20;78.10;;;;;;5053192;28;19974;-55
2022/07/03 03:26:08;;;;;;;;;;;20.30;78.10;;;;;;5033088;28;19963;-52
2022/07/03 03:28:54;;;;;;;;;;;20.30;77.90;;;;;;5033791;28;19983;-55
2022/07/03 03:31:38;;;;;;;;;;;20.20;78.10;;;;;;5034191;28;20378;-54
2022/07/03 03:34:23;;;;;;;;;;;20.10;78.50;;;;;;5015254;28;20269;-50
2022/07/03 03:37:07;;;;;;;;;;;20.00;79.10;;;;;;5031092;28;19920;-50
2022/07/03 03:39:52;;;;;;;;;;;19.90;79.50;;;;;;5033939;28;19997;-57
2022/07/03 03:42:36;;;;;;;;;;;19.90;79.80;;;;;;5034200;28;19924;-53
2022/07/03 03:45:20;;;;;;;;;;;20.00;79.80;;;;;;5013570;28;20443;-49
2022/07/03 03:48:04;;;;;;;;;;;20.00;79.70;;;;;;5013289;28;19952;-49
2022/07/03 03:50:48;;;;;;;;;;;20.10;79.60;;;;;;5016290;28;19931;-52
2022/07/03 03:53:33;;;;;;;;;;;20.00;79.90;;;;;;5033781;28;19996;-54
2022/07/03 03:56:17;;;;;;;;;;;20.10;79.90;;;;;;5032567;28;20011;-50
2022/07/03 03:59:01;;;;;;;;;;;20.20;79.60;;;;;;5033703;28;19912;-50
2022/07/03 04:01:47;;;;;;;;;;;20.30;79.10;;;;;;5029896;28;20272;-51
2022/07/03 04:04:31;;;;;;;;;;;20.40;78.80;;;;;;5032288;28;19916;-50
2022/07/03 04:07:15;;;;;;;;;;;20.50;78.60;;;;;;5012009;28;19920;-53
2022/07/03 04:10:00;;;;;;;;;;;20.60;78.30;;;;;;5012720;28;19921;-56
2022/07/03 04:12:44;;;;;;;;;;;20.70;78.20;;;;;;5023671;28;19964;-52
2022/07/03 04:15:28;;;;;;;;;;;20.70;78.00;;;;;;5031741;28;19960;-53
2022/07/03 04:18:13;;;;;;;;;;;20.80;78.00;;;;;;5032746;28;19959;-55
2022/07/03 04:20:57;;;;;;;;;;;20.90;77.80;;;;;;5032296;28;19918;-54
2022/07/03 04:23:41;;;;;;;;;;;20.90;77.90;;;;;;5032488;28;19917;-57
2022/07/03 04:26:25;;;;;;;;;;;20.90;77.90;;;;;;5017201;28;20052;-54
2022/07/03 04:29:10;;;;;;;;;;;20.90;77.90;;;;;;5032335;28;20022;-53
2022/07/03 04:31:54;;;;;;;;;;;20.90;78.10;;;;;;5032084;28;19916;-55
2022/07/03 04:34:39;;;;;;;;;;;20.90;77.90;;;;;;5031835;28;19962;-56
2022/07/03 04:37:23;;;;;;;;;;;20.90;77.90;;;;;;5030974;28;20048;-53
2022/07/03 04:40:07;;;;;;;;;;;21.00;78.00;;;;;;5032664;28;20288;-54
2022/07/03 04:42:51;;;;;;;;;;;21.00;77.60;;;;;;5032467;28;19955;-51
2022/07/03 04:45:35;;;;;;;;;;;21.10;77.40;;;;;;5031486;28;19924;-53
2022/07/03 04:48:20;;;;;;;;;;;21.10;77.30;;;;;;5031762;28;19915;-54
2022/07/03 04:51:04;;;;;;;;;;;21.20;77.10;;;;;;5033631;28;19916;-55
2022/07/03 04:53:48;;;;;;;;;;;21.20;77.20;;;;;;5036369;28;19916;-53
2022/07/03 04:56:32;;;;;;;;;;;21.20;77.10;;;;;;5034440;28;20015;-51
2022/07/03 04:59:17;;;;;;;;;;;21.20;77.10;;;;;;5030624;28;19920;-55
2022/07/03 05:02:01;;;;;;;;;;;21.30;77.00;;;;;;5035581;28;19920;-54
2022/07/03 05:04:45;;;;;;;;;;;21.30;76.90;;;;;;5036776;28;19944;-52
2022/07/03 05:07:29;;;;;;;;;;;21.40;77.00;;;;;;5036432;28;19912;-55
2022/07/03 05:10:14;;;;;;;;;;;21.40;76.90;;;;;;5036868;28;19920;-53
2022/07/03 05:12:58;;;;;;;;;;;21.40;76.80;;;;;;5035890;28;19920;-50
2022/07/03 05:15:42;;;;;;;;;;;21.30;76.90;;;;;;5034566;28;19919;-51
2022/07/03 05:18:26;;;;;;;;;;;21.30;77.20;;;;;;5034338;28;20335;-51
2022/07/03 05:21:10;;;;;;;;;;;21.40;77.10;;;;;;5034605;28;20363;-49
2022/07/03 05:23:55;;;;;;;;;;;21.50;77.20;;;;;;5034169;28;20459;-54
2022/07/03 05:26:39;;;;;;;;;;;21.50;76.90;;;;;;5033963;28;19916;-51
2022/07/03 05:29:23;;;;;;;;;;;21.60;76.70;;;;;;5021288;28;19924;-51
2022/07/03 05:32:08;;;;;;;;;;;21.60;76.80;;;;;;5034683;28;19920;-52
2022/07/03 05:34:52;;;;;;;;;;;21.60;76.80;;;;;;5035981;28;19920;-50
2022/07/03 05:37:36;;;;;;;;;;;21.60;76.90;;;;;;5025587;28;19985;-54
2022/07/03 05:40:20;;;;;;;;;;;21.80;76.90;;;;;;5035019;28;20371;-50
2022/07/03 05:43:05;;;;;;;;;;;21.80;76.60;;;;;;5038905;28;19944;-52
2022/07/03 05:45:49;;;;;;;;;;;21.90;76.50;;;;;;5037945;28;19939;-55
2022/07/03 05:48:33;;;;;;;;;;;22.00;76.70;;;;;;5036526;28;20296;-48
2022/07/03 05:51:17;;;;;;;;;;;22.00;76.30;;;;;;5034606;28;19912;-50
2022/07/03 05:54:01;;;;;;;;;;;22.00;75.80;;;;;;5034067;28;19919;-55
2022/07/03 05:56:46;;;;;;;;;;;22.00;75.90;;;;;;5033463;28;20032;-51
2022/07/03 05:59:30;;;;;;;;;;;22.10;76.00;;;;;;5033447;28;19919;-54
2022/07/03 06:02:14;;;;;;;;;;;22.30;75.60;;;;;;5033915;28;19931;-53
2022/07/03 06:04:58;;;;;;;;;;;22.40;75.10;;;;;;5037657;28;19911;-54
2022/07/03 06:07:43;;;;;;;;;;;22.50;75.40;;;;;;5024090;28;19931;-52
2022/07/03 06:10:27;;;;;;;;;;;22.60;74.70;;;;;;5039040;28;19963;-54
2022/07/03 06:13:12;;;;;;;;;;;22.50;74.30;;;;;;5040282;28;19931;-56
2022/07/03 06:15:56;;;;;;;;;;;22.40;74.70;;;;;;5034323;28;19963;-56
2022/07/03 06:18:40;;;;;;;;;;;22.50;74.70;;;;;;5033882;28;19927;-52
2022/07/03 06:21:24;;;;;;;;;;;22.70;74.60;;;;;;5033965;28;19920;-51
2022/07/03 06:24:08;;;;;;;;;;;22.70;74.00;;;;;;5034958;28;19916;-54
2022/07/03 06:26:53;;;;;;;;;;;22.70;74.10;;;;;;5034933;28;19937;-54
2022/07/03 06:29:37;;;;;;;;;;;22.80;73.20;;;;;;5033751;28;19920;-50
2022/07/03 06:32:21;;;;;;;;;;;22.80;73.80;;;;;;5033754;28;20039;-55
2022/07/03 06:35:05;;;;;;;;;;;22.60;74.50;;;;;;5034278;28;19923;-50
2022/07/03 06:37:50;;;;;;;;;;;22.60;74.30;;;;;;5033212;28;19982;-52
2022/07/03 06:40:34;;;;;;;;;;;22.50;74.50;;;;;;5034655;28;20363;-53
2022/07/03 06:43:18;;;;;;;;;;;22.50;75.10;;;;;;5027856;28;19916;-54
2022/07/03 06:46:02;;;;;;;;;;;22.50;75.30;;;;;;5017502;28;20386;-53
2022/07/03 06:48:46;;;;;;;;;;;22.60;75.60;;;;;;5032710;28;20042;-55
2022/07/03 06:51:30;;;;;;;;;;;22.70;75.50;;;;;;5032730;28;20055;-57
2022/07/03 06:54:15;;;;;;;;;;;22.80;75.10;;;;;;5033201;28;19967;-56
2022/07/03 06:56:59;;;;;;;;;;;22.80;75.20;;;;;;5031129;28;19962;-48
2022/07/03 06:59:43;;;;;;;;;;;22.90;75.30;;;;;;5031498;28;19916;-47
2022/07/03 07:02:27;;;;;;;;;;;22.90;75.10;;;;;;5014482;28;19916;-46
2022/07/03 07:05:11;;;;;;;;;;;23.00;75.10;;;;;;5033610;28;19959;-49
2022/07/03 07:07:55;;;;;;;;;;;23.00;75.00;;;;;;5034029;28;19936;-51
2022/07/03 07:10:39;;;;;;;;;;;23.00;75.10;;;;;;5033256;28;19919;-48
2022/07/03 07:13:24;;;;;;;;;;;23.10;75.10;;;;;;5032746;28;20293;-51
2022/07/03 07:16:08;;;;;;;;;;;23.10;75.10;;;;;;5031217;28;19924;-47
2022/07/03 07:18:52;;;;;;;;;;;23.20;74.70;;;;;;5032192;28;19975;-51
2022/07/03 07:21:37;;;;;;;;;;;23.00;75.20;;;;;;5032622;28;20438;-53
2022/07/03 07:24:20;;;;;;;;;;;22.90;75.70;;;;;;5032722;28;19993;-49
2022/07/03 07:27:05;;;;;;;;;;;23.10;75.80;;;;;;5016894;28;20015;-53
2022/07/03 07:29:49;;;;;;;;;;;23.20;75.90;;;;;;5032508;28;19916;-50
2022/07/03 07:32:33;;;;;;;;;;;23.30;75.80;;;;;;5033011;28;19916;-55
2022/07/03 07:35:18;;;;;;;;;;;23.40;75.40;;;;;;5032134;28;19932;-56
2022/07/03 07:38:02;;;;;;;;;;;23.50;75.20;;;;;;5032287;28;19924;-53
2022/07/03 07:40:46;;;;;;;;;;;23.50;74.80;;;;;;5033133;28;20296;-51
2022/07/03 07:43:30;;;;;;;;;;;23.50;74.90;;;;;;5032446;28;19950;-52
2022/07/03 07:46:15;;;;;;;;;;;23.60;74.20;;;;;;5018289;28;20375;-51
2022/07/03 07:48:59;;;;;;;;;;;23.60;73.70;;;;;;5018664;28;19959;-49
2022/07/03 07:51:43;;;;;;;;;;;23.60;73.60;;;;;;5052534;28;19911;-48
2022/07/03 07:54:28;;;;;;;;;;;23.80;73.90;;;;;;5052147;28;19966;-51
2022/07/03 07:57:12;;;;;;;;;;;23.80;74.10;;;;;;5040848;28;19915;-49
2022/07/03 07:59:57;;;;;;;;;;;24.00;73.00;;;;;;5030684;28;19920;-52
2022/07/03 08:05:44;;;;;;;;;;;24.00;72.90;;;;;;5032029;28;19912;-53
2022/07/03 08:08:29;;;;;;;;;;;24.10;72.80;;;;;;5031875;28;19960;-49
2022/07/03 08:11:13;;;;;;;;;;;24.30;72.80;;;;;;5033003;28;19928;-55
2022/07/03 08:13:58;;;;;;;;;;;24.50;72.90;;;;;;5033363;28;19951;-51
2022/07/03 08:16:42;;;;;;;;;;;24.50;71.10;;;;;;5033227;28;20352;-53
2022/07/03 08:19:26;;;;;;;;;;;24.60;71.40;;;;;;5032607;28;19982;-54
2022/07/03 08:22:10;;;;;;;;;;;24.70;71.70;;;;;;5032640;28;20331;-53
2022/07/03 08:24:54;;;;;;;;;;;24.80;70.50;;;;;;5032399;28;19988;-53
2022/07/03 08:27:38;;;;;;;;;;;24.70;70.90;;;;;;5034553;28;19939;-48
2022/07/03 08:30:23;;;;;;;;;;;24.90;70.90;;;;;;5036566;28;19916;-56
2022/07/03 08:33:07;;;;;;;;;;;25.10;69.70;;;;;;5036870;28;19975;-54
2022/07/03 08:35:51;;;;;;;;;;;25.10;69.70;;;;;;5036033;28;19924;-48
2022/07/03 08:38:35;;;;;;;;;;;25.10;70.10;;;;;;5035911;28;19924;-52
2022/07/03 08:41:20;;;;;;;;;;;25.20;70.00;;;;;;5035923;28;19955;-51
2022/07/03 08:44:05;;;;;;;;;;;25.40;70.20;;;;;;5033132;28;19929;-56
2022/07/03 08:46:50;;;;;;;;;;;25.60;69.90;;;;;;5055730;28;19932;-56
2022/07/03 08:49:35;;;;;;;;;;;25.70;68.90;;;;;;5055692;28;19912;-55
2022/07/03 08:52:19;;;;;;;;;;;25.70;68.20;;;;;;5055570;28;20008;-50
2022/07/03 08:55:03;;;;;;;;;;;25.80;68.20;;;;;;5054964;28;19931;-53
2022/07/03 08:57:49;;;;;;;;;;;25.80;67.40;;;;;;5039269;28;20424;-50
2022/07/03 09:00:34;;;;;;;;;;;25.80;67.50;;;;;;5027237;28;19919;-56
2022/07/03 09:03:19;;;;;;;;;;;25.90;66.80;;;;;;5056161;28;19963;-52
2022/07/03 09:06:04;;;;;;;;;;;26.00;67.00;;;;;;5054787;28;19957;-52
2022/07/03 09:08:49;;;;;;;;;;;26.30;66.30;;;;;;5055046;28;20327;-53
2022/07/03 09:11:33;;;;;;;;;;;26.30;66.80;;;;;;5055911;28;19930;-51
2022/07/03 09:14:17;;;;;;;;;;;26.40;66.30;;;;;;5055131;28;19920;-50
2022/07/03 09:17:05;;;;;;;;;;;26.60;65.80;;;;;;5054426;28;19959;-48
2022/07/03 09:19:49;;;;;;;;;;;26.50;66.00;;;;;;5056067;28;20003;-51
2022/07/03 09:22:34;;;;;;;;;;;26.70;65.90;;;;;;5054861;28;20042;-53
2022/07/03 09:25:19;;;;;;;;;;;26.90;65.80;;;;;;5054814;28;19916;-49
2022/07/03 09:28:03;;;;;;;;;;;27.00;64.80;;;;;;5054265;28;19916;-51
2022/07/03 09:30:57;;;;;;;;;;;27.20;64.10;;;;;;5054701;28;20354;-50
2022/07/03 09:34:07;;;;;;;;;;;27.20;62.50;;;;;;5054476;28;19931;-49
2022/07/03 09:36:52;;;;;;;;;;;27.20;62.30;;;;;;5054494;28;19916;-53
2022/07/03 09:39:37;;;;;;;;;;;27.00;62.40;;;;;;5053283;28;19928;-51
2022/07/03 09:42:21;;;;;;;;;;;27.00;62.80;;;;;;5054577;28;20383;-47
2022/07/03 09:45:06;;;;;;;;;;;26.90;62.60;;;;;;5019697;28;19996;-50
2022/07/03 09:47:50;;;;;;;;;;;27.10;62.50;;;;;;5034703;28;19912;-47
2022/07/03 09:50:34;;;;;;;;;;;27.40;61.50;;;;;;5034460;28;19916;-48
2022/07/03 09:53:18;;;;;;;;;;;27.50;61.80;;;;;;5035248;28;19916;-51
2022/07/03 09:56:03;;;;;;;;;;;27.50;62.10;;;;;;5033828;28;19920;-55
2022/07/03 09:58:59;;;;;;;;;;;27.80;61.60;;;;;;5033931;28;19955;-53
2022/07/03 10:01:44;;;;;;;;;;;27.80;60.60;;;;;;5054090;28;19962;-53
2022/07/03 10:04:28;;;;;;;;;;;27.60;61.00;;;;;;5054403;28;19950;-48
2022/07/03 10:07:13;;;;;;;;;;;27.30;60.90;;;;;;5053288;28;19963;-50
2022/07/03 10:09:57;;;;;;;;;;;27.30;61.00;;;;;;5054536;28;19920;-47
2022/07/03 10:12:43;;;;;;;;;;;27.00;62.00;;;;;;5053866;28;19949;-53
2022/07/03 10:15:29;;;;;;;;;;;26.80;63.60;;;;;;5052878;28;19920;-54
2022/07/03 10:18:13;;;;;;;;;;;27.00;62.70;;;;;;5053086;28;19911;-49
2022/07/03 10:20:59;;;;;;;;;;;26.80;62.70;;;;;;5053626;28;19974;-48
2022/07/03 10:23:44;;;;;;;;;;;27.00;61.70;;;;;;5053836;28;19912;-49
2022/07/03 10:26:28;;;;;;;;;;;27.20;60.40;;;;;;5052621;28;20410;-55
2022/07/03 10:29:15;;;;;;;;;;;27.30;60.20;;;;;;5054059;28;19931;-48
2022/07/03 10:31:59;;;;;;;;;;;27.60;60.20;;;;;;5054586;28;19951;-49
2022/07/03 10:34:44;;;;;;;;;;;27.90;59.30;;;;;;5053375;28;20005;-47
2022/07/03 10:37:30;;;;;;;;;;;28.10;58.70;;;;;;5052543;28;19920;-54
2022/07/03 10:46:36;;;;;;;;;;;28.00;58.60;;;;;;5032617;28;19916;-50
2022/07/03 10:49:20;;;;;;;;;;;27.90;58.70;;;;;;5032792;28;19941;-51
2022/07/03 10:52:04;;;;;;;;;;;27.70;57.40;;;;;;5033215;28;19927;-52
2022/07/03 10:54:56;;;;;;;;;;;27.60;58.60;;;;;;5032826;28;19924;-50
2022/07/03 10:57:40;;;;;;;;;;;27.50;58.40;;;;;;5032712;28;19912;-51
2022/07/03 11:00:24;;;;;;;;;;;27.80;58.10;;;;;;5033327;28;20276;-51
2022/07/03 11:03:08;;;;;;;;;;;28.10;57.90;;;;;;5033407;28;20003;-47
2022/07/03 11:05:52;;;;;;;;;;;28.10;58.20;;;;;;5033187;28;20000;-48
2022/07/03 11:08:57;;;;;;;;;;;28.10;57.20;;;;;;5032910;28;19920;-52
2022/07/03 11:11:54;;;;;;;;;;;28.10;56.90;;;;;;5033302;28;20276;-50
2022/07/03 11:14:38;;;;;;;;;;;28.10;56.20;;;;;;5037846;28;19966;-52
2022/07/03 11:17:22;;;;;;;;;;;28.00;56.30;;;;;;5052290;28;19916;-50
2022/07/03 11:20:25;;;;;;;;;;;28.10;57.60;;;;;;5053074;28;20299;-52
2022/07/03 11:23:09;;;;;;;;;;;28.30;57.10;;;;;;5053226;28;19927;-53
2022/07/03 11:25:54;;;;;;;;;;;28.30;56.00;;;;;;5053272;28;19916;-48
2022/07/03 11:28:38;;;;;;;;;;;28.30;54.90;;;;;;5052969;28;19970;-51
2022/07/03 11:31:23;;;;;;;;;;;28.30;55.10;;;;;;5053917;28;19912;-48
2022/07/03 11:34:07;;;;;;;;;;;28.40;55.70;;;;;;5053485;28;19954;-47
2022/07/03 11:36:52;;;;;;;;;;;28.60;54.80;;;;;;5053115;28;19915;-52
2022/07/03 11:39:36;;;;;;;;;;;28.50;55.00;;;;;;5052631;28;19974;-48
2022/07/03 11:42:21;;;;;;;;;;;28.40;55.50;;;;;;5052241;28;19955;-48
2022/07/03 11:45:05;;;;;;;;;;;28.40;56.00;;;;;;5013365;28;19984;-54
2022/07/03 11:47:50;;;;;;;;;;;28.30;54.80;;;;;;5012694;28;20288;-48
2022/07/03 11:50:38;;;;;;;;;;;28.20;54.90;;;;;;5012471;28;19916;-49
2022/07/03 11:53:23;;;;;;;;;;;28.20;53.80;;;;;;5013727;28;19912;-53
2022/07/03 11:56:08;;;;;;;;;;;28.30;53.60;;;;;;5013079;28;19941;-54
2022/07/03 11:58:53;;;;;;;;;;;28.40;55.50;;;;;;5029511;28;19963;-52
2022/07/03 12:01:38;;;;;;;;;;;28.40;55.20;;;;;;5034177;28;19934;-54
2022/07/03 12:04:22;;;;;;;;;;;28.40;54.40;;;;;;5051943;28;19927;-54
2022/07/03 12:07:07;;;;;;;;;;;28.50;54.50;;;;;;5052153;28;19920;-53
2022/07/03 12:09:51;;;;;;;;;;;28.40;55.00;;;;;;5052205;28;19914;-53
2022/07/03 12:12:36;;;;;;;;;;;28.60;56.30;;;;;;5052042;28;19915;-56
2022/07/03 12:15:21;;;;;;;;;;;28.60;55.40;;;;;;5051667;28;19916;-56
2022/07/03 12:18:05;;;;;;;;;;;28.60;55.00;;;;;;5052648;28;20568;-57
2022/07/03 12:20:51;;;;;;;;;;;28.70;55.70;;;;;;5052067;28;20355;-55
2022/07/03 12:23:46;;;;;;;;;;;29.00;55.30;;;;;;5051858;28;19963;-54
2022/07/03 12:26:31;;;;;;;;;;;29.40;55.10;;;;;;5051395;28;19915;-57
2022/07/03 12:29:16;;;;;;;;;;;29.10;54.30;;;;;;5051421;28;19912;-54
2022/07/03 12:32:00;;;;;;;;;;;29.00;54.20;;;;;;5051886;28;19958;-49
2022/07/03 12:34:44;;;;;;;;;;;28.90;54.40;;;;;;5051820;28;19924;-53
2022/07/03 12:37:33;;;;;;;;;;;29.20;53.70;;;;;;5036228;28;20375;-54
2022/07/03 12:40:18;;;;;;;;;;;29.20;53.60;;;;;;5052015;28;20327;-52
2022/07/03 12:43:02;;;;;;;;;;;29.20;54.00;;;;;;5033057;28;20056;-54
2022/07/03 12:45:47;;;;;;;;;;;29.30;53.50;;;;;;5031383;28;19939;-56
2022/07/03 12:48:31;;;;;;;;;;;29.30;53.50;;;;;;5031577;28;19933;-55
2022/07/03 12:51:16;;;;;;;;;;;29.70;53.20;;;;;;5031735;28;19912;-56
2022/07/03 12:54:00;;;;;;;;;;;29.70;52.20;;;;;;5016232;28;19944;-55
2022/07/03 12:56:44;;;;;;;;;;;29.80;53.00;;;;;;5030446;28;19920;-55
2022/07/03 12:59:29;;;;;;;;;;;29.60;53.20;;;;;;5019332;28;19998;-54
2022/07/03 13:02:13;;;;;;;;;;;29.60;52.60;;;;;;5031979;28;20403;-52
2022/07/03 13:05:01;;;;;;;;;;;30.00;52.40;;;;;;5031476;28;20286;-54
2022/07/03 13:07:47;;;;;;;;;;;30.00;52.10;;;;;;5032104;28;20024;-54
2022/07/03 13:10:31;;;;;;;;;;;29.90;52.60;;;;;;5032476;28;19963;-52
2022/07/03 13:13:15;;;;;;;;;;;29.90;51.60;;;;;;5018787;28;19967;-54
2022/07/03 13:15:59;;;;;;;;;;;29.80;53.10;;;;;;5040059;28;19983;-53
2022/07/03 13:18:56;;;;;;;;;;;29.90;52.00;;;;;;5055401;28;20003;-56
2022/07/03 13:21:40;;;;;;;;;;;30.00;52.20;;;;;;5055162;28;20355;-54
2022/07/03 13:24:24;;;;;;;;;;;30.20;51.60;;;;;;5055156;28;19916;-54
2022/07/03 13:27:08;;;;;;;;;;;30.20;51.80;;;;;;5054693;28;19928;-54
2022/07/03 13:29:53;;;;;;;;;;;30.10;50.80;;;;;;5055079;28;20307;-53
2022/07/03 13:32:37;;;;;;;;;;;29.90;51.40;;;;;;5039244;28;19936;-55
2022/07/03 13:35:21;;;;;;;;;;;30.30;51.40;;;;;;5054099;28;19919;-52
2022/07/03 13:38:05;;;;;;;;;;;30.80;51.30;;;;;;5055623;28;19962;-54
2022/07/03 13:40:50;;;;;;;;;;;31.10;51.00;;;;;;5055080;28;19994;-54
2022/07/03 13:43:34;;;;;;;;;;;30.90;51.00;;;;;;5031141;28;20377;-55
2022/07/03 13:46:21;;;;;;;;;;;31.00;51.80;;;;;;5034034;28;19916;-52
2022/07/03 13:49:05;;;;;;;;;;;31.30;51.20;;;;;;5034276;28;20486;-54
2022/07/03 13:51:49;;;;;;;;;;;31.30;51.30;;;;;;5034088;28;19955;-55
2022/07/03 13:54:34;;;;;;;;;;;30.90;50.70;;;;;;5034007;28;19931;-54
2022/07/03 13:57:19;;;;;;;;;;;31.00;51.20;;;;;;5026759;28;19916;-52
2022/07/03 14:00:03;;;;;;;;;;;31.40;50.00;;;;;;5033158;28;20016;-52
2022/07/03 14:02:47;;;;;;;;;;;31.50;50.10;;;;;;5034676;28;19920;-56
2022/07/03 14:05:31;;;;;;;;;;;31.60;50.10;;;;;;5034332;28;20012;-53
2022/07/03 14:08:15;;;;;;;;;;;31.60;50.60;;;;;;5033398;28;19915;-54
2022/07/03 14:11:00;;;;;;;;;;;31.80;50.30;;;;;;5033868;28;19916;-54
2022/07/03 14:13:44;;;;;;;;;;;31.50;49.10;;;;;;5034332;28;19912;-52
2022/07/03 14:16:28;;;;;;;;;;;31.50;49.30;;;;;;5033234;28;19942;-53
2022/07/03 14:19:12;;;;;;;;;;;31.70;49.50;;;;;;5033943;28;19916;-51
2022/07/03 14:21:56;;;;;;;;;;;31.70;49.10;;;;;;5034242;28;19979;-50
2022/07/03 14:24:41;;;;;;;;;;;31.80;49.40;;;;;;5033535;28;20284;-54
2022/07/03 14:33:31;;;;;;;;;;;32.00;48.70;;;;;;5033519;28;19915;-54
2022/07/03 14:36:15;;;;;;;;;;;32.10;48.30;;;;;;5033048;28;19967;-54
2022/07/03 14:38:59;;;;;;;;;;;32.10;48.80;;;;;;5033094;28;19920;-53
2022/07/03 14:41:45;;;;;;;;;;;32.20;48.00;;;;;;5033166;28;20005;-53
2022/07/03 14:44:29;;;;;;;;;;;32.50;48.10;;;;;;5049025;28;20000;-54
2022/07/03 14:47:14;;;;;;;;;;;32.50;48.40;;;;;;5053192;28;20250;-50
2022/07/03 14:49:58;;;;;;;;;;;32.90;48.70;;;;;;5053082;28;20322;-52
2022/07/03 14:52:42;;;;;;;;;;;33.00;47.00;;;;;;5053206;28;19999;-50
2022/07/03 14:55:35;;;;;;;;;;;32.60;48.40;;;;;;5052428;28;20403;-52
2022/07/03 14:58:22;;;;;;;;;;;32.90;47.60;;;;;;5031185;28;19916;-50
2022/07/03 15:01:06;;;;;;;;;;;32.10;47.80;;;;;;5032583;28;19979;-54
2022/07/03 15:04:00;;;;;;;;;;;32.30;48.40;;;;;;5033073;28;20526;-53
2022/07/03 15:06:45;;;;;;;;;;;32.70;47.60;;;;;;5038545;28;19934;-49
2022/07/03 15:09:32;;;;;;;;;;;33.10;47.30;;;;;;5040959;28;19920;-50
2022/07/03 15:12:35;;;;;;;;;;;33.00;47.50;;;;;;5033426;28;20333;-53
2022/07/03 15:15:23;;;;;;;;;;;33.10;46.90;;;;;;5012905;28;19967;-52
2022/07/03 15:18:08;;;;;;;;;;;33.60;46.90;;;;;;5017586;28;19936;-52
2022/07/03 15:20:52;;;;;;;;;;;33.50;46.60;;;;;;5032668;28;19916;-51
2022/07/03 15:23:36;;;;;;;;;;;33.10;47.10;;;;;;5032825;28;20004;-51
2022/07/03 15:26:20;;;;;;;;;;;33.00;47.40;;;;;;5032726;28;19940;-55
2022/07/03 15:29:05;;;;;;;;;;;32.90;48.00;;;;;;5032794;28;20280;-53
2022/07/03 15:31:49;;;;;;;;;;;32.90;47.70;;;;;;5033055;28;19920;-54
2022/07/03 15:34:36;;;;;;;;;;;33.50;48.10;;;;;;5017504;28;19939;-53
2022/07/03 15:37:32;;;;;;;;;;;33.90;47.50;;;;;;5031764;28;19959;-54
2022/07/03 15:40:22;;;;;;;;;;;34.20;46.90;;;;;;5032890;28;19913;-53
2022/07/03 15:43:22;;;;;;;;;;;34.30;47.80;;;;;;5021598;28;20438;-50
2022/07/03 15:46:24;;;;;;;;;;;34.30;47.60;;;;;;5025672;28;20541;-51
2022/07/03 15:49:27;;;;;;;;;;;34.30;46.60;;;;;;5033232;28;19992;-56
2022/07/03 15:52:21;;;;;;;;;;;34.20;46.50;;;;;;5032334;28;19964;-50
2022/07/03 15:55:05;;;;;;;;;;;34.30;46.00;;;;;;5032058;28;19916;-50
2022/07/03 15:57:52;;;;;;;;;;;34.00;46.20;;;;;;5031949;28;20058;-56
2022/07/03 16:00:37;;;;;;;;;;;34.40;47.20;;;;;;5052182;28;19915;-55
2022/07/03 16:03:27;;;;;;;;;;;34.50;45.90;;;;;;5012425;28;20277;-53
2022/07/03 16:06:12;;;;;;;;;;;34.50;45.40;;;;;;5014642;28;19967;-55
2022/07/03 16:08:56;;;;;;;;;;;34.70;45.70;;;;;;5031646;28;20435;-54
2022/07/03 16:11:41;;;;;;;;;;;34.30;45.50;;;;;;5031605;28;19967;-53
2022/07/03 16:14:31;;;;;;;;;;;34.20;46.00;;;;;;5032169;28;19915;-56
2022/07/03 16:17:16;;;;;;;;;;;34.30;46.30;;;;;;5034523;28;19920;-53